Amity, North Carolina
Current Conditions -  °F | °C
As of 10:55 AM on Thursday 30 Oct 2014 (Local Time) from KRUQ Reporting Station
Clear Clear  
Wind Chill: 57°   Ceiling: Unl
Heat Index: 57°   Visibility: 10mi
Dew Point: 41°   Wind: 6mph
Humidity: 54%   Direction: 360°N
Pressure: 30.09"   Gusts: NA
Location:  35.7427°N, 80.712°W
Report Text: KRUQ 301455Z AUTO 36005KT 10SM CLR 14/05 A3009 RMK AO2 T01410050
Loading
Personal Weather Stations






























Interactive Weather Map
Tropical Storm Tracking
New forecast layout! Learn more

10-Day Weather Forecast

Advertisements
Track Severe Weather on mobile